Strona główna
METAR-TAF:

METAR-TAF

Lotnisko :

Port lotniczy Kuwejt

Kuwejt, Kuwejt

Szerokość geograficzna: 29-13N, Długość geograficzna: 047-59E, wysokość: 55 m

Aktualna obserwacja pogody

Raport powstał 6 minut temu, godzina 22:00 UTC
Cisza
Temperatura 17°C
Wilgotność 88%
Ciśnienie 1019 hPa
Widzialność 10 km lub więcej
Brak chmur poniżej 1500 m i brak chmur cumulonimbus

METAR: OKBK 092200Z 00000KT CAVOK 17/15 Q1019 NOSIG

czas: 01:06 (22:06 UTC)

Prognoza

Raport powstał 5 godziny i 21 minut temu, godzina 16:45 UTC
Prognoza ważna od 09 godzina 18 UTC do 10 godzina 24 UTC
Wiatr 3 kt z kierunków zmiennych
Widzialność: 7000 m
Mało chmury na wysokości 4000 ft
Przerywane chmury na wysokości 8000 ft
Stopniowe zmiany
od 09 godzina 23 UTC do 10 godzina 01 UTC
Przejściowo
od 10 godzina 01 UTC do 10 godzina 04 UTC
Widzialność: 4000 m
zamglenie

TAF: OKBK 091645Z 0918/1024 VRB03KT 7000 FEW040 BKN080 BECMG 0923/1001 NSC TEMPO 1001/1004 4000 BR

Obserwacja i prognoza pogody dla ponad 4000 lotnisk (raport METAR i TAF).

Dostępne stacje oznaczono żółtymi i czerwonymi punktami na mapie.

Najedź kursorem aby zobaczyć nazwę stacji.

Kliknij aby zobaczyć obserwacje i prognozy pogody.

Aby zmienić mapę: kliknij na zielony przycisk z czarnym krzyżykiem, aby powiększyć; na zielony przycisk z myślnikiem, aby pomniejszyć; na zielone strzałki, aby przejść do map sąsiednich.


METAR-TAF: